createdAt,value
2023-03-02T00:01:58.512Z,51.86
2023-03-02T00:04:28.523Z,51.92
2023-03-02T00:06:57.660Z,52.21
2023-03-02T00:09:25.314Z,51.70
2023-03-02T00:11:53.011Z,52.00
2023-03-02T00:14:22.109Z,51.76
2023-03-02T00:16:49.782Z,52.42
2023-03-02T00:19:17.444Z,52.02
2023-03-02T00:21:45.108Z,51.80
2023-03-02T00:24:14.757Z,51.90
2023-03-02T00:26:42.506Z,51.77
2023-03-02T00:29:10.548Z,52.07
2023-03-02T00:31:39.895Z,51.97
2023-03-02T00:34:07.690Z,51.67
2023-03-02T00:36:35.326Z,53.07
2023-03-02T00:39:04.666Z,52.93
2023-03-02T00:41:32.362Z,52.74
2023-03-02T00:44:20.795Z,52.60
2023-03-02T00:46:49.872Z,52.24
2023-03-02T00:49:17.760Z,53.48
2023-03-02T00:51:45.440Z,53.29
2023-03-02T00:54:13.116Z,53.14
2023-03-02T00:56:40.789Z,53.26
2023-03-02T00:59:11.065Z,53.17
2023-03-02T01:01:38.796Z,52.52
2023-03-02T01:04:08.016Z,52.00
2023-03-02T01:06:35.681Z,52.20
2023-03-02T01:09:03.432Z,51.89
2023-03-02T01:11:31.148Z,52.29
2023-03-02T01:13:58.847Z,52.63
2023-03-02T01:16:26.604Z,52.87
2023-03-02T01:18:54.290Z,53.21
2023-03-02T01:21:23.400Z,52.53
2023-03-02T01:23:51.668Z,52.82
2023-03-02T01:26:19.386Z,52.28
2023-03-02T01:28:47.423Z,52.66
2023-03-02T01:31:15.538Z,52.89
2023-03-02T01:33:43.221Z,52.76
2023-03-02T01:36:11.056Z,52.50
2023-03-02T01:38:40.175Z,52.21
2023-03-02T01:41:07.875Z,52.84
2023-03-02T01:43:35.535Z,52.59
2023-03-02T01:46:03.330Z,52.35
2023-03-02T01:48:32.630Z,52.13
2023-03-02T01:51:00.287Z,52.16
2023-03-02T01:53:28.950Z,52.20
2023-03-02T01:55:58.146Z,52.90
2023-03-02T01:58:25.819Z,52.41
2023-03-02T02:00:53.743Z,52.34
2023-03-02T02:03:22.784Z,51.84
2023-03-02T02:05:55.912Z,52.16
2023-03-02T02:08:24.059Z,52.02
2023-03-02T02:10:52.376Z,52.39
2023-03-02T02:13:21.391Z,52.25
2023-03-02T02:15:49.047Z,52.66
2023-03-02T02:18:16.720Z,52.61
2023-03-02T02:20:45.938Z,52.56
2023-03-02T02:23:25.682Z,52.26
2023-03-02T02:26:20.080Z,52.21
2023-03-02T02:28:50.826Z,52.58
2023-03-02T02:31:19.924Z,52.32
2023-03-02T02:33:49.707Z,52.22
2023-03-02T02:36:19.844Z,52.44
2023-03-02T02:38:48.884Z,52.42
2023-03-02T02:41:21.160Z,52.10
2023-03-02T02:43:49.557Z,52.12
2023-03-02T02:46:17.415Z,51.92
2023-03-02T02:48:45.134Z,52.36
2023-03-02T02:51:14.716Z,52.01
2023-03-02T02:53:45.066Z,52.12
2023-03-02T02:56:12.947Z,52.38
2023-03-02T02:58:43.899Z,52.03
2023-03-02T03:01:14.013Z,52.35
2023-03-02T03:03:41.717Z,52.38
2023-03-02T03:06:10.176Z,52.15
2023-03-02T03:08:51.985Z,52.71
2023-03-02T03:11:23.336Z,52.59
2023-03-02T03:13:54.993Z,52.12
2023-03-02T03:16:22.726Z,52.22
2023-03-02T03:18:50.424Z,52.29
2023-03-02T03:21:18.619Z,52.30
2023-03-02T03:23:46.321Z,52.72
2023-03-02T03:26:13.977Z,53.21
2023-03-02T03:28:41.635Z,52.85
2023-03-02T03:31:10.722Z,52.73
2023-03-02T03:33:38.397Z,53.34
2023-03-02T03:36:06.940Z,53.37
2023-03-02T03:38:34.781Z,53.13
2023-03-02T03:41:02.513Z,53.05
2023-03-02T03:43:30.181Z,53.06
2023-03-02T03:45:57.875Z,53.13
2023-03-02T03:48:26.978Z,53.22
2023-03-02T03:50:54.643Z,53.04
2023-03-02T03:53:22.318Z,52.94
2023-03-02T03:55:50.563Z,53.86
2023-03-02T03:58:18.267Z,53.79
2023-03-02T04:00:47.605Z,53.42
2023-03-02T04:03:15.528Z,53.38
2023-03-02T04:05:44.622Z,53.39
2023-03-02T04:08:12.338Z,53.07
2023-03-02T04:10:39.987Z,53.13
2023-03-02T04:13:07.758Z,53.07
2023-03-02T04:15:35.459Z,52.94
2023-03-02T04:18:03.205Z,53.04
2023-03-02T04:20:31.228Z,53.04
2023-03-02T04:23:00.227Z,53.09
2023-03-02T04:25:28.988Z,53.21
2023-03-02T04:27:56.766Z,53.36
2023-03-02T04:30:25.909Z,53.30
2023-03-02T04:32:53.702Z,53.25
2023-03-02T04:35:21.430Z,52.96
2023-03-02T04:37:49.142Z,52.85
2023-03-02T04:40:18.323Z,53.04
2023-03-02T04:42:46.044Z,53.51
2023-03-02T04:45:13.965Z,52.81
2023-03-02T04:47:41.780Z,53.30
2023-03-02T04:50:10.585Z,53.04
2023-03-02T04:52:38.361Z,53.26
2023-03-02T04:55:06.778Z,53.32
2023-03-02T04:57:36.194Z,53.68
2023-03-02T05:00:04.809Z,53.38
2023-03-02T05:02:32.571Z,53.40
2023-03-02T05:05:00.423Z,53.06
2023-03-02T05:07:28.178Z,53.20
2023-03-02T05:09:55.835Z,52.86
2023-03-02T05:12:23.500Z,53.31
2023-03-02T05:14:52.539Z,54.58
2023-03-02T05:17:20.211Z,53.49
2023-03-02T05:19:47.866Z,53.15
2023-03-02T05:22:15.544Z,52.88
2023-03-02T05:24:43.207Z,53.25
2023-03-02T05:27:10.904Z,53.20
2023-03-02T05:29:38.561Z,52.87
2023-03-02T05:32:07.649Z,53.21
2023-03-02T05:34:35.367Z,53.45
2023-03-02T05:37:03.200Z,53.42
2023-03-02T05:39:30.934Z,53.05
2023-03-02T05:41:58.635Z,53.46
2023-03-02T05:44:26.295Z,52.82
2023-03-02T05:46:54.011Z,53.33
2023-03-02T05:49:23.073Z,53.09
2023-03-02T05:51:50.730Z,52.90
2023-03-02T05:54:18.777Z,53.45
2023-03-02T05:56:47.204Z,53.39
2023-03-02T05:59:15.963Z,52.75
2023-03-02T06:01:43.666Z,53.02
2023-03-02T06:04:11.344Z,52.82
2023-03-02T06:06:40.473Z,52.28
2023-03-02T06:09:08.198Z,52.94
2023-03-02T06:11:35.867Z,52.92
2023-03-02T06:14:03.531Z,52.66
2023-03-02T06:16:33.697Z,52.50
2023-03-02T06:19:01.587Z,52.90
2023-03-02T06:21:29.270Z,52.99
2023-03-02T06:23:58.303Z,52.53
2023-03-02T06:26:25.992Z,52.28
2023-03-02T06:28:54.198Z,52.20
2023-03-02T06:31:22.806Z,52.24
2023-03-02T06:33:50.680Z,52.40
2023-03-02T06:36:18.427Z,51.87
2023-03-02T06:38:46.128Z,52.24
2023-03-02T06:41:15.159Z,51.88
2023-03-02T06:43:42.890Z,53.57
2023-03-02T06:46:10.654Z,53.46
2023-03-02T06:48:38.358Z,53.53
2023-03-02T06:51:07.651Z,53.45
2023-03-02T06:53:35.585Z,53.41
2023-03-02T06:56:03.260Z,53.48
2023-03-02T06:58:32.591Z,53.07
2023-03-02T07:01:00.327Z,53.31
2023-03-02T07:03:28.098Z,53.02
2023-03-02T07:05:55.822Z,53.35
2023-03-02T07:08:24.005Z,53.01
2023-03-02T07:10:51.701Z,52.93
2023-03-02T07:13:19.395Z,52.68
2023-03-02T07:15:48.478Z,52.83
2023-03-02T07:18:16.148Z,53.23
2023-03-02T07:20:43.809Z,53.20
2023-03-02T07:23:11.524Z,52.51
2023-03-02T07:25:39.215Z,52.67
2023-03-02T07:28:07.004Z,52.97
2023-03-02T07:30:34.743Z,52.93
2023-03-02T07:33:03.891Z,52.69
2023-03-02T07:35:31.583Z,52.18
2023-03-02T07:37:59.375Z,52.25
2023-03-02T07:40:27.341Z,52.12
2023-03-02T07:42:55.023Z,51.64
2023-03-02T07:45:24.887Z,51.76
2023-03-02T07:47:52.622Z,51.57
2023-03-02T07:50:21.737Z,51.74
2023-03-02T07:52:49.419Z,51.54
2023-03-02T07:55:17.316Z,51.78
2023-03-02T07:57:45.007Z,51.39
2023-03-02T08:00:13.471Z,51.72
2023-03-02T08:02:41.216Z,51.62
2023-03-02T08:05:09.121Z,51.09
2023-03-02T08:07:38.290Z,51.42
2023-03-02T08:10:06.564Z,51.00
2023-03-02T08:12:34.225Z,51.53
2023-03-02T08:15:03.704Z,51.33
2023-03-02T08:17:32.569Z,51.08
2023-03-02T08:20:00.324Z,51.11
2023-03-02T08:22:28.035Z,50.99
2023-03-02T08:24:57.048Z,51.16
2023-03-02T08:27:24.730Z,51.29
2023-03-02T08:29:54.117Z,50.73
2023-03-02T08:32:21.863Z,51.12
2023-03-02T08:34:51.756Z,51.12
2023-03-02T08:37:19.569Z,51.04
2023-03-02T08:39:47.293Z,50.54
2023-03-02T08:42:16.365Z,51.00
2023-03-02T08:44:44.044Z,50.81
2023-03-02T08:47:11.740Z,50.56
2023-03-02T08:49:39.691Z,50.86
2023-03-02T08:52:07.396Z,50.77
2023-03-02T08:54:35.249Z,50.85
2023-03-02T08:57:03.124Z,50.30
2023-03-02T08:59:32.174Z,50.74
2023-03-02T09:02:00.302Z,50.78
2023-03-02T09:04:28.116Z,50.41
2023-03-02T09:06:55.842Z,50.34
2023-03-02T09:09:23.559Z,50.35
2023-03-02T09:11:51.240Z,50.40
2023-03-02T09:14:18.911Z,50.14
2023-03-02T09:16:48.019Z,50.20
2023-03-02T09:19:15.758Z,50.41
2023-03-02T09:21:43.439Z,50.01
2023-03-02T09:24:11.140Z,50.28
2023-03-02T09:26:39.269Z,49.99
2023-03-02T09:29:07.465Z,49.95
2023-03-02T09:31:35.604Z,50.14
2023-03-02T09:34:04.964Z,50.23
2023-03-02T09:36:32.766Z,49.96
2023-03-02T09:39:00.511Z,50.33
2023-03-02T09:42:00.862Z,50.29
2023-03-02T09:44:58.494Z,49.74
2023-03-02T09:47:35.476Z,50.02
2023-03-02T09:50:11.756Z,49.84
2023-03-02T09:52:41.271Z,49.75
2023-03-02T09:55:14.318Z,50.01
2023-03-02T09:57:42.168Z,50.08
2023-03-02T10:00:19.450Z,49.73
2023-03-02T10:02:49.255Z,49.67
2023-03-02T10:05:19.877Z,49.98
2023-03-02T10:07:47.649Z,49.78
2023-03-02T10:10:24.338Z,49.33
2023-03-02T10:12:59.912Z,49.52
2023-03-02T10:15:30.835Z,49.47
2023-03-02T10:18:01.848Z,49.60
2023-03-02T10:20:34.519Z,49.42
2023-03-02T10:23:09.566Z,49.35
2023-03-02T10:25:42.922Z,49.23
2023-03-02T10:28:14.920Z,49.86
2023-03-02T10:30:42.624Z,49.24
2023-03-02T10:33:13.032Z,49.59
2023-03-02T10:35:42.746Z,49.68
2023-03-02T10:38:14.110Z,49.25
2023-03-02T10:40:43.273Z,49.13
2023-03-02T10:43:15.490Z,49.36
2023-03-02T10:45:43.202Z,49.41
2023-03-02T10:48:13.806Z,49.09
2023-03-02T10:50:43.554Z,49.37
2023-03-02T10:53:17.234Z,49.12
2023-03-02T10:55:46.448Z,49.20
2023-03-02T10:58:22.849Z,49.53
2023-03-02T11:00:57.178Z,49.13
2023-03-02T11:03:25.175Z,49.31
2023-03-02T11:05:54.286Z,50.09
2023-03-02T11:08:22.958Z,50.22
2023-03-02T11:10:57.065Z,49.49
2023-03-02T11:13:29.200Z,49.22
2023-03-02T11:15:59.747Z,48.71
2023-03-02T11:18:29.353Z,49.15
2023-03-02T11:21:00.976Z,48.93
2023-03-02T11:23:34.341Z,48.86
2023-03-02T11:26:06.217Z,49.03
2023-03-02T11:28:46.640Z,48.66
2023-03-02T11:31:17.720Z,48.77
2023-03-02T11:33:52.779Z,48.74
2023-03-02T11:36:23.376Z,48.41
2023-03-02T11:38:52.585Z,48.75
2023-03-02T11:41:27.389Z,48.26
2023-03-02T11:43:55.578Z,48.45
2023-03-02T11:46:26.494Z,48.50
2023-03-02T11:48:55.569Z,48.61
2023-03-02T11:51:25.135Z,48.18
2023-03-02T11:53:57.076Z,48.78
2023-03-02T11:56:24.810Z,49.38
2023-03-02T11:58:55.261Z,49.65
2023-03-02T12:01:24.419Z,49.39
2023-03-02T12:03:52.211Z,49.56
2023-03-02T12:06:37.604Z,49.21
2023-03-02T12:09:12.225Z,49.20
2023-03-02T12:11:40.904Z,48.80
2023-03-02T12:14:27.538Z,48.49
2023-03-02T12:17:05.764Z,48.61
2023-03-02T12:19:40.443Z,48.70
2023-03-02T12:22:12.298Z,48.37
2023-03-02T12:24:41.432Z,48.58
2023-03-02T12:27:25.614Z,48.84
2023-03-02T12:29:57.855Z,48.85
2023-03-02T12:32:28.053Z,48.69
2023-03-02T12:34:56.899Z,48.51
2023-03-02T12:37:27.411Z,48.77
2023-03-02T12:40:25.950Z,48.18
2023-03-02T12:43:21.532Z,48.41
2023-03-02T12:45:57.712Z,48.44
2023-03-02T12:48:28.356Z,48.18
2023-03-02T12:50:57.247Z,48.26
2023-03-02T12:53:26.386Z,48.24
2023-03-02T12:55:54.113Z,48.14
2023-03-02T12:58:23.695Z,48.34
2023-03-02T13:00:52.516Z,48.59
2023-03-02T13:03:20.393Z,48.70
2023-03-02T13:05:48.353Z,48.75
2023-03-02T13:08:18.519Z,48.23
2023-03-02T13:10:50.753Z,48.27
2023-03-02T13:13:19.997Z,48.53
2023-03-02T13:15:52.011Z,48.38
2023-03-02T13:18:19.873Z,48.79
2023-03-02T13:20:47.548Z,48.34
2023-03-02T13:23:15.831Z,48.60
2023-03-02T13:25:50.591Z,48.27
2023-03-02T13:28:27.532Z,48.59
2023-03-02T13:30:59.308Z,48.67
2023-03-02T13:33:27.583Z,48.71
2023-03-02T13:35:56.021Z,48.79
2023-03-02T13:38:24.439Z,48.54
2023-03-02T13:40:54.083Z,48.72
2023-03-02T13:43:23.532Z,48.53
2023-03-02T13:45:55.474Z,48.68
2023-03-02T13:48:23.267Z,48.64
2023-03-02T13:50:52.644Z,48.76
2023-03-02T13:53:20.429Z,48.55
2023-03-02T13:55:48.297Z,48.72
2023-03-02T13:58:18.872Z,48.55
2023-03-02T14:00:46.569Z,48.56
2023-03-02T14:03:22.367Z,48.75
2023-03-02T14:05:50.097Z,48.57
2023-03-02T14:08:17.881Z,48.79
2023-03-02T14:10:45.952Z,48.84
2023-03-02T14:13:15.383Z,48.92
2023-03-02T14:15:47.771Z,48.40
2023-03-02T14:18:32.375Z,48.34
2023-03-02T14:21:00.229Z,48.47
2023-03-02T14:23:28.103Z,48.74
2023-03-02T14:25:56.268Z,48.13
2023-03-02T14:28:26.803Z,48.27
2023-03-02T14:30:57.103Z,48.50
2023-03-02T14:33:24.924Z,48.53
2023-03-02T14:35:54.378Z,48.50
2023-03-02T14:38:22.270Z,48.31
2023-03-02T14:40:50.052Z,48.13
2023-03-02T14:43:18.589Z,48.07
2023-03-02T14:45:46.364Z,48.31
2023-03-02T14:48:15.405Z,48.48
2023-03-02T14:50:44.257Z,48.62
2023-03-02T14:53:14.123Z,48.58
2023-03-02T14:55:41.963Z,48.45
2023-03-02T14:58:12.786Z,48.53
2023-03-02T15:00:40.455Z,48.28
2023-03-02T15:03:08.116Z,48.13
2023-03-02T15:05:37.187Z,48.55
2023-03-02T15:08:05.285Z,48.30
2023-03-02T15:10:32.940Z,48.61
2023-03-02T15:13:00.640Z,48.72
2023-03-02T15:15:28.362Z,48.13
2023-03-02T15:17:56.064Z,48.74
2023-03-02T15:20:23.762Z,47.99
2023-03-02T15:22:53.430Z,48.58
2023-03-02T15:25:23.865Z,48.14
2023-03-02T15:27:51.633Z,48.53
2023-03-02T15:30:19.881Z,48.12
2023-03-02T15:32:47.820Z,48.05
2023-03-02T15:35:15.473Z,48.18
2023-03-02T15:37:43.150Z,48.11
2023-03-02T15:40:13.303Z,48.44
2023-03-02T15:42:42.148Z,48.19
2023-03-02T15:45:10.365Z,48.29
2023-03-02T15:47:38.277Z,48.40
2023-03-02T15:50:06.949Z,48.32
2023-03-02T15:52:34.622Z,48.33
2023-03-02T15:55:02.301Z,48.54
2023-03-02T15:57:31.397Z,48.72
2023-03-02T15:59:59.072Z,48.72
2023-03-02T16:02:26.756Z,48.69
2023-03-02T16:04:54.617Z,48.51
2023-03-02T16:07:22.270Z,48.57
2023-03-02T16:09:49.983Z,48.73
2023-03-02T16:12:18.572Z,48.73
2023-03-02T16:14:47.600Z,48.46
2023-03-02T16:17:17.764Z,48.59
2023-03-02T16:19:45.552Z,48.69
2023-03-02T16:22:13.242Z,48.25
2023-03-02T16:24:42.002Z,48.20
2023-03-02T16:27:09.742Z,48.67
2023-03-02T16:29:37.472Z,48.17
2023-03-02T16:32:08.956Z,48.34
2023-03-02T16:34:36.863Z,48.51
2023-03-02T16:37:04.542Z,48.43
2023-03-02T16:39:32.818Z,48.12
2023-03-02T16:42:00.508Z,48.61
2023-03-02T16:44:28.187Z,48.41
2023-03-02T16:46:57.366Z,48.50
2023-03-02T16:49:26.601Z,48.67
2023-03-02T16:51:57.742Z,48.35
2023-03-02T16:54:25.644Z,48.70
2023-03-02T16:56:53.329Z,48.12
2023-03-02T16:59:21.008Z,48.41
2023-03-02T17:01:48.803Z,48.61
2023-03-02T17:04:18.299Z,48.14
2023-03-02T17:07:03.109Z,48.44
2023-03-02T17:09:31.107Z,48.22
2023-03-02T17:11:58.819Z,48.46
2023-03-02T17:14:26.550Z,48.52
2023-03-02T17:16:54.268Z,48.66
2023-03-02T17:19:21.966Z,48.43
2023-03-02T17:21:51.018Z,48.69
2023-03-02T17:24:18.704Z,48.18
2023-03-02T17:26:46.793Z,48.67
2023-03-02T17:29:14.473Z,48.61
2023-03-02T17:31:42.143Z,48.32
2023-03-02T17:34:09.854Z,48.33
2023-03-02T17:36:37.557Z,48.27
2023-03-02T17:39:06.630Z,48.79
2023-03-02T17:41:34.314Z,48.38
2023-03-02T17:44:01.979Z,48.78
2023-03-02T17:46:29.898Z,48.73
2023-03-02T17:48:58.314Z,48.80
2023-03-02T17:51:26.332Z,48.84
2023-03-02T17:53:54.701Z,48.77
2023-03-02T17:56:24.679Z,48.81
2023-03-02T17:58:53.415Z,48.57
2023-03-02T18:01:21.176Z,48.91
2023-03-02T18:03:48.888Z,48.78
2023-03-02T18:06:18.816Z,48.45
2023-03-02T18:08:46.487Z,48.68
2023-03-02T18:11:14.170Z,48.94
2023-03-02T18:13:43.228Z,49.15
2023-03-02T18:16:11.329Z,49.26
2023-03-02T18:18:39.053Z,48.85
2023-03-02T18:21:07.084Z,49.35
2023-03-02T18:23:39.717Z,49.16
2023-03-02T18:26:07.391Z,49.40
2023-03-02T18:28:35.120Z,49.10
2023-03-02T18:31:04.246Z,48.93
2023-03-02T18:33:31.924Z,49.16
2023-03-02T18:36:00.498Z,48.97
2023-03-02T18:38:30.930Z,49.09
2023-03-02T18:40:59.555Z,49.55
2023-03-02T18:43:27.565Z,49.17
2023-03-02T18:45:57.174Z,49.22
2023-03-02T18:48:26.355Z,49.47
2023-03-02T18:50:56.795Z,49.36
2023-03-02T18:53:29.245Z,49.83
2023-03-02T18:55:57.524Z,49.67
2023-03-02T18:58:25.371Z,49.30
2023-03-02T19:00:53.490Z,49.49
2023-03-02T19:03:22.331Z,49.42
2023-03-02T19:05:57.866Z,49.58
2023-03-02T19:08:27.886Z,49.63
2023-03-02T19:10:55.593Z,49.83
2023-03-02T19:13:23.285Z,49.26
2023-03-02T19:15:50.994Z,49.22
2023-03-02T19:18:20.376Z,49.66
2023-03-02T19:20:48.238Z,49.57
2023-03-02T19:23:17.399Z,49.57
2023-03-02T19:25:45.188Z,49.41
2023-03-02T19:28:12.998Z,49.69
2023-03-02T19:30:41.049Z,49.67
2023-03-02T19:33:09.760Z,50.12
2023-03-02T19:35:38.395Z,49.77
2023-03-02T19:38:06.310Z,49.74
2023-03-02T19:40:35.702Z,49.71
2023-03-02T19:43:03.421Z,49.78
2023-03-02T19:45:32.269Z,49.54
2023-03-02T19:48:00.428Z,49.85
2023-03-02T19:50:29.020Z,49.82
2023-03-02T19:52:56.868Z,49.70
2023-03-02T19:55:25.177Z,49.53
2023-03-02T19:57:59.836Z,49.43
2023-03-02T20:00:28.187Z,49.78
2023-03-02T20:02:55.960Z,49.52
2023-03-02T20:05:23.640Z,49.87
2023-03-02T20:07:51.349Z,49.49
2023-03-02T20:10:27.348Z,49.52
2023-03-02T20:12:56.458Z,49.60
2023-03-02T20:15:24.145Z,49.63
2023-03-02T20:17:51.837Z,50.80
2023-03-02T20:20:20.024Z,51.84
2023-03-02T20:22:47.766Z,50.78
2023-03-02T20:25:15.547Z,50.58
2023-03-02T20:27:43.373Z,50.85
2023-03-02T20:30:15.447Z,50.18
2023-03-02T20:32:43.215Z,50.16
2023-03-02T20:35:11.481Z,50.52
2023-03-02T20:37:39.248Z,50.47
2023-03-02T20:40:07.874Z,50.37
2023-03-02T20:42:36.093Z,50.18
2023-03-02T20:45:04.193Z,50.49
2023-03-02T20:47:33.355Z,50.64
2023-03-02T20:50:01.337Z,50.20
2023-03-02T20:52:29.081Z,49.81
2023-03-02T20:54:57.107Z,50.13
2023-03-02T20:57:25.008Z,50.18
2023-03-02T20:59:52.806Z,49.96
2023-03-02T21:02:20.553Z,50.12
2023-03-02T21:04:49.886Z,50.26
2023-03-02T21:07:17.596Z,49.79
2023-03-02T21:09:45.443Z,49.94
2023-03-02T21:12:13.213Z,50.06
2023-03-02T21:14:41.358Z,50.30
2023-03-02T21:17:09.071Z,49.85
2023-03-02T21:19:37.442Z,50.33
2023-03-02T21:22:06.541Z,50.30
2023-03-02T21:24:34.248Z,50.13
2023-03-02T21:27:02.588Z,50.75
2023-03-02T21:29:30.259Z,50.88
2023-03-02T21:31:58.243Z,50.47
2023-03-02T21:34:26.192Z,50.71
2023-03-02T21:36:54.039Z,50.45
2023-03-02T21:39:23.830Z,50.81
2023-03-02T21:41:51.716Z,50.52
2023-03-02T21:44:19.421Z,51.03
2023-03-02T21:46:47.297Z,50.58
2023-03-02T21:49:16.240Z,50.23
2023-03-02T21:51:44.054Z,50.78
2023-03-02T21:54:11.763Z,50.66
2023-03-02T21:56:40.957Z,50.44
2023-03-02T21:59:08.697Z,50.61
2023-03-02T22:01:36.430Z,50.53
2023-03-02T22:04:04.537Z,50.49
2023-03-02T22:06:33.039Z,50.75
2023-03-02T22:09:01.444Z,50.75
2023-03-02T22:11:29.879Z,50.63
2023-03-02T22:14:00.124Z,51.21
2023-03-02T22:16:28.488Z,50.40
2023-03-02T22:18:57.333Z,50.35
2023-03-02T22:21:30.031Z,50.54
2023-03-02T22:24:18.859Z,51.13
2023-03-02T22:26:47.444Z,50.80
2023-03-02T22:29:17.348Z,51.27
2023-03-02T22:31:47.155Z,50.73
2023-03-02T22:34:15.673Z,51.04
2023-03-02T22:36:43.449Z,51.04
2023-03-02T22:39:13.460Z,50.64
2023-03-02T22:41:41.172Z,50.61
2023-03-02T22:44:11.855Z,50.43
2023-03-02T22:46:41.103Z,50.47
2023-03-02T22:49:17.245Z,50.54
2023-03-02T22:51:45.554Z,50.91
2023-03-02T22:54:17.514Z,50.88
2023-03-02T22:56:45.786Z,50.48
2023-03-02T22:59:17.499Z,50.98
2023-03-02T23:01:46.722Z,50.72
2023-03-02T23:04:17.736Z,50.71
2023-03-02T23:06:46.443Z,50.85
2023-03-02T23:09:16.881Z,51.00
2023-03-02T23:11:44.834Z,50.70
2023-03-02T23:14:19.794Z,50.52
2023-03-02T23:16:49.924Z,50.53
2023-03-02T23:19:17.704Z,50.83
2023-03-02T23:21:46.220Z,50.92
2023-03-02T23:24:13.972Z,50.85
2023-03-02T23:26:42.062Z,50.57
2023-03-02T23:29:09.729Z,50.27
2023-03-02T23:31:38.158Z,50.54
2023-03-02T23:34:07.199Z,51.44
2023-03-02T23:36:34.896Z,51.56
2023-03-02T23:39:02.590Z,50.81
2023-03-02T23:41:30.342Z,51.22
2023-03-02T23:43:58.206Z,51.54
2023-03-02T23:46:25.911Z,51.47
2023-03-02T23:48:55.923Z,51.76
2023-03-02T23:51:25.725Z,51.85
2023-03-02T23:53:53.678Z,51.54
2023-03-02T23:56:21.385Z,51.50
2023-03-02T23:58:49.082Z,51.86
